YXKO weather

Kyogle Hospital Helipad
Kyogle, New South Wales, Australia

Public forecast

Using degrees Celsius for public forecast. Weather courtesy of forecast.io.

METAR (pilot weather report)

Closest report is Casino Airport, 15.7 nm (29.0 km) SSE. Retrieved 2019/04/20 12:00 UTC (16 minutes ago):

YCAS 201200Z AUTO 21003KT //// // ////// 18/17 Q1023

TAF (pilot weather forecast)

Forecast is more than 6 hours old.

Closest forecast is Gold Coast Airport, 38.5 nm (71.3 km) NE. Retrieved 2019/04/20 06:00 UTC (6 hours ago):

TAF YBCG 200504Z 2006/2106 13014KT 9999 -SHRA FEW015 SCT025 BKN040 FM201200 15008KT 9999 -SHRA SCT015 SCT030 FM202300 12014KT 9999 -SHRA SCT020 SCT030 INTER 2006/2018 3000 SHRA BKN012